Allemand, Louisiana
Current Conditions -  °F | °C
As of 11:47 AM on Sunday 21 Dec 2014 (Local Time) from KHUM Reporting Station
Overcast Overcast  
Wind Chill: 55°   Ceiling: 1000
Heat Index: 55°   Visibility: 7mi
Dew Point: 52°   Wind: 5mph
Humidity: 88%   Direction: 60°ENE
Pressure: 30.09"   Gusts: NA
Location:  29.5867°N, 90.8252°W
Report Text: KHUM 211747Z 06004KT 7SM OVC010 13/11 A3009 RMK RY12/30 CLSD ATIS P GPS RY36 MS
Loading
Personal Weather Stations






























Interactive Weather Map New forecast layout! Learn more

10-Day Weather Forecast

Advertisements
Track Severe Weather on mobile